createdAt,value
2022-12-27T00:00:05.119Z,5.28
2022-12-27T00:02:31.468Z,5.28
2022-12-27T00:04:57.964Z,5.28
2022-12-27T00:07:24.279Z,5.27
2022-12-27T00:09:50.862Z,5.25
2022-12-27T00:12:17.181Z,5.25
2022-12-27T00:14:43.491Z,5.22
2022-12-27T00:17:09.833Z,5.22
2022-12-27T00:19:36.157Z,5.22
2022-12-27T00:22:02.626Z,5.22
2022-12-27T00:24:28.989Z,5.21
2022-12-27T00:26:55.314Z,5.22
2022-12-27T00:29:21.619Z,5.21
2022-12-27T00:31:48.232Z,5.20
2022-12-27T00:34:14.563Z,5.21
2022-12-27T00:36:40.904Z,5.20
2022-12-27T00:39:07.223Z,5.19
2022-12-27T00:41:33.632Z,5.22
2022-12-27T00:43:59.942Z,5.21
2022-12-27T00:46:26.279Z,5.22
2022-12-27T00:48:52.917Z,5.22
2022-12-27T00:51:22.119Z,5.23
2022-12-27T00:53:49.577Z,5.24
2022-12-27T00:56:22.014Z,5.22
2022-12-27T00:58:53.127Z,5.22
2022-12-27T01:01:21.415Z,5.22
2022-12-27T01:03:47.977Z,5.22
2022-12-27T01:06:20.099Z,5.21
2022-12-27T01:08:47.493Z,5.23
2022-12-27T01:11:15.114Z,5.22
2022-12-27T01:13:42.632Z,5.22
2022-12-27T01:16:18.020Z,5.20
2022-12-27T01:18:44.571Z,5.21
2022-12-27T01:21:13.313Z,5.21
2022-12-27T01:23:40.044Z,5.25
2022-12-27T01:26:10.414Z,5.26
2022-12-27T01:28:37.338Z,5.29
2022-12-27T01:31:14.993Z,5.32
2022-12-27T01:33:41.557Z,5.38
2022-12-27T01:36:10.185Z,5.40
2022-12-27T01:38:36.494Z,5.45
2022-12-27T01:41:22.782Z,5.47
2022-12-27T01:43:49.254Z,5.50
2022-12-27T01:46:16.044Z,5.51
2022-12-27T01:48:42.554Z,5.51
2022-12-27T01:51:10.920Z,5.50
2022-12-27T01:53:42.164Z,5.50
2022-12-27T02:01:45.590Z,5.51
2022-12-27T02:04:18.812Z,5.50
2022-12-27T02:06:46.753Z,5.49
2022-12-27T02:09:28.031Z,5.44
2022-12-27T02:11:56.975Z,5.44
2022-12-27T02:14:31.193Z,5.40
2022-12-27T02:17:00.361Z,5.41
2022-12-27T02:19:32.891Z,5.40
2022-12-27T02:22:21.328Z,5.35
2022-12-27T02:25:11.377Z,5.32
2022-12-27T02:27:56.128Z,5.31
2022-12-27T02:30:22.800Z,5.33
2022-12-27T02:32:53.107Z,5.30
2022-12-27T02:35:22.538Z,5.30
2022-12-27T02:37:58.458Z,5.26
2022-12-27T02:40:45.592Z,5.27
2022-12-27T02:43:30.869Z,5.26
2022-12-27T02:46:33.249Z,5.21
2022-12-27T02:49:18.627Z,5.22
2022-12-27T02:52:27.834Z,5.21
2022-12-27T02:55:15.392Z,5.19
2022-12-27T02:58:20.903Z,5.19
2022-12-27T03:01:22.885Z,5.22
2022-12-27T03:03:56.540Z,5.24
2022-12-27T03:06:41.166Z,5.27
2022-12-27T03:09:52.644Z,5.25
2022-12-27T03:12:49.732Z,5.33
2022-12-27T03:15:56.167Z,5.33
2022-12-27T03:18:44.343Z,5.38
2022-12-27T03:21:32.887Z,5.44
2022-12-27T03:24:35.726Z,5.47
2022-12-27T03:27:07.825Z,5.49
2022-12-27T03:29:52.894Z,5.52
2022-12-27T03:32:40.185Z,5.50
2022-12-27T03:35:18.500Z,5.47
2022-12-27T03:38:05.125Z,5.48
2022-12-27T03:41:15.222Z,5.44
2022-12-27T03:43:42.067Z,5.48
2022-12-27T03:46:33.971Z,5.44
2022-12-27T03:49:15.876Z,5.44
2022-12-27T03:51:55.075Z,5.43
2022-12-27T03:54:34.734Z,5.41
2022-12-27T03:57:05.291Z,5.43
2022-12-27T03:59:31.887Z,5.45
2022-12-27T04:02:00.553Z,5.44
2022-12-27T04:04:27.301Z,5.45
2022-12-27T04:06:53.993Z,5.44
2022-12-27T04:09:39.553Z,5.45
2022-12-27T04:12:24.897Z,5.44
2022-12-27T04:15:09.691Z,5.42
2022-12-27T04:17:54.636Z,5.40
2022-12-27T04:20:39.699Z,5.39
2022-12-27T04:23:25.238Z,5.37
2022-12-27T04:26:10.635Z,5.34
2022-12-27T04:28:55.777Z,5.29
2022-12-27T04:31:40.750Z,5.27
2022-12-27T04:34:25.875Z,5.26
2022-12-27T04:36:52.391Z,5.25
2022-12-27T04:39:18.937Z,5.24
2022-12-27T04:42:04.345Z,5.25
2022-12-27T04:44:49.391Z,5.27
2022-12-27T04:47:38.128Z,5.30
2022-12-27T04:50:28.892Z,5.34
2022-12-27T04:53:13.703Z,5.38
2022-12-27T04:55:40.182Z,5.39
2022-12-27T04:58:06.794Z,5.41
2022-12-27T05:00:52.338Z,5.41
2022-12-27T05:03:22.967Z,5.41
2022-12-27T05:05:51.754Z,5.42
2022-12-27T05:08:38.462Z,5.42
2022-12-27T05:11:24.644Z,5.43
2022-12-27T05:14:00.440Z,5.45
2022-12-27T05:16:41.565Z,5.44
2022-12-27T05:19:10.374Z,5.47
2022-12-27T05:21:38.597Z,5.48
2022-12-27T05:24:24.522Z,5.50
2022-12-27T05:26:51.040Z,5.55
2022-12-27T05:29:17.606Z,5.57
2022-12-27T05:31:44.148Z,5.60
2022-12-27T05:34:10.735Z,5.63
2022-12-27T05:36:37.327Z,5.65
2022-12-27T05:39:03.976Z,5.67
2022-12-27T05:41:30.567Z,5.70
2022-12-27T05:44:02.134Z,5.72
2022-12-27T05:46:33.399Z,5.77
2022-12-27T05:48:59.964Z,5.80
2022-12-27T05:51:26.487Z,5.82
2022-12-27T05:53:53.039Z,5.83
2022-12-27T05:56:21.525Z,5.84
2022-12-27T05:58:48.349Z,5.86
2022-12-27T06:01:17.320Z,5.86
2022-12-27T06:03:44.715Z,5.89
2022-12-27T06:06:11.948Z,5.88
2022-12-27T06:08:39.041Z,5.89
2022-12-27T06:11:17.443Z,5.86
2022-12-27T06:13:49.168Z,5.89
2022-12-27T06:16:15.820Z,5.91
2022-12-27T06:18:42.838Z,5.92
2022-12-27T06:21:12.970Z,5.91
2022-12-27T06:23:41.412Z,5.92
2022-12-27T06:26:09.533Z,5.92
2022-12-27T06:28:36.222Z,5.92
2022-12-27T06:31:03.599Z,5.92
2022-12-27T06:33:30.987Z,5.94
2022-12-27T06:35:57.799Z,5.96
2022-12-27T06:38:24.555Z,5.96
2022-12-27T06:40:51.109Z,5.97
2022-12-27T06:43:17.609Z,5.99
2022-12-27T06:45:44.203Z,6.02
2022-12-27T06:48:10.799Z,6.04
2022-12-27T06:50:37.314Z,6.05
2022-12-27T06:53:03.798Z,6.07
2022-12-27T06:55:30.261Z,6.09
2022-12-27T06:57:56.906Z,6.10
2022-12-27T07:00:23.478Z,6.11
2022-12-27T07:02:50.066Z,6.12
2022-12-27T07:05:16.877Z,6.13
2022-12-27T07:07:43.411Z,6.13
2022-12-27T07:10:10.107Z,6.14
2022-12-27T07:12:37.417Z,6.16
2022-12-27T07:15:07.963Z,6.15
2022-12-27T07:17:36.162Z,6.18
2022-12-27T07:20:06.751Z,6.17
2022-12-27T07:22:34.366Z,6.18
2022-12-27T07:25:00.958Z,6.17
2022-12-27T07:27:27.461Z,6.18
2022-12-27T07:29:53.969Z,6.18
2022-12-27T07:32:20.579Z,6.18
2022-12-27T07:34:47.110Z,6.18
2022-12-27T07:37:13.683Z,6.15
2022-12-27T07:39:40.174Z,6.16
2022-12-27T07:42:08.651Z,6.15
2022-12-27T07:44:35.578Z,6.13
2022-12-27T07:47:02.179Z,6.11
2022-12-27T07:49:28.730Z,6.10
2022-12-27T07:51:55.436Z,6.08
2022-12-27T07:54:25.089Z,6.07
2022-12-27T07:59:22.844Z,6.00
2022-12-27T08:02:04.590Z,5.96
2022-12-27T08:04:32.407Z,5.94
2022-12-27T08:07:14.662Z,5.87
2022-12-27T08:09:43.463Z,5.89
2022-12-27T08:12:11.273Z,5.87
2022-12-27T08:14:37.681Z,5.85
2022-12-27T08:17:29.459Z,5.82
2022-12-27T08:19:56.009Z,5.83
2022-12-27T08:22:23.648Z,5.81
2022-12-27T08:24:50.116Z,5.81
2022-12-27T08:27:24.419Z,5.79
2022-12-27T08:29:50.754Z,5.81
2022-12-27T08:32:17.092Z,5.81
2022-12-27T08:34:43.474Z,5.83
2022-12-27T08:37:09.829Z,5.83
2022-12-27T08:39:36.122Z,5.83
2022-12-27T08:42:02.560Z,5.84
2022-12-27T08:44:29.267Z,5.85
2022-12-27T08:46:55.641Z,5.89
2022-12-27T08:49:22.416Z,5.91
2022-12-27T08:51:50.106Z,5.93
2022-12-27T08:54:16.445Z,5.96
2022-12-27T08:56:42.781Z,5.98
2022-12-27T08:59:09.121Z,6.02
2022-12-27T09:01:35.553Z,6.05
2022-12-27T09:04:05.283Z,6.08
2022-12-27T09:06:31.816Z,6.10
2022-12-27T09:08:59.607Z,6.12
2022-12-27T09:11:32.773Z,6.13
2022-12-27T09:14:03.880Z,6.16
2022-12-27T09:16:31.327Z,6.19
2022-12-27T09:18:59.018Z,6.20
2022-12-27T09:21:30.167Z,6.18
2022-12-27T09:23:56.628Z,6.21
2022-12-27T09:26:26.469Z,6.20
2022-12-27T09:28:53.711Z,6.22
2022-12-27T09:31:21.121Z,6.22
2022-12-27T09:33:47.951Z,6.25
2022-12-27T09:36:16.662Z,6.28
2022-12-27T09:38:43.734Z,6.29
2022-12-27T09:42:11.773Z,6.28
2022-12-27T09:44:15.355Z,6.30
2022-12-27T09:46:53.957Z,6.30
2022-12-27T09:49:31.103Z,6.31
2022-12-27T09:52:10.523Z,6.32
2022-12-27T09:55:05.717Z,6.34
2022-12-27T09:57:41.702Z,6.37
2022-12-27T10:00:17.232Z,6.39
2022-12-27T10:02:44.845Z,6.44
2022-12-27T10:05:21.984Z,6.46
2022-12-27T10:07:55.083Z,6.48
2022-12-27T10:10:27.139Z,6.49
2022-12-27T10:13:04.098Z,6.53
2022-12-27T10:15:30.489Z,6.58
2022-12-27T10:17:59.808Z,6.63
2022-12-27T10:20:47.434Z,6.64
2022-12-27T10:23:22.246Z,6.70
2022-12-27T10:25:55.081Z,6.77
2022-12-27T10:28:29.002Z,6.82
2022-12-27T10:30:55.557Z,6.89
2022-12-27T10:33:30.117Z,6.91
2022-12-27T10:35:57.646Z,7.00
2022-12-27T10:38:25.193Z,7.04
2022-12-27T10:41:00.444Z,7.09
2022-12-27T10:43:35.374Z,7.12
2022-12-27T10:46:33.722Z,7.15
2022-12-27T10:49:23.941Z,7.19
2022-12-27T10:51:52.912Z,7.27
2022-12-27T10:54:28.481Z,7.28
2022-12-27T10:56:56.115Z,7.34
2022-12-27T10:59:28.139Z,7.33
2022-12-27T11:02:00.607Z,7.35
2022-12-27T11:04:28.294Z,7.38
2022-12-27T11:06:59.531Z,7.38
2022-12-27T11:09:26.588Z,7.41
2022-12-27T11:12:15.267Z,7.36
2022-12-27T11:15:01.003Z,7.39
2022-12-27T11:17:38.004Z,7.40
2022-12-27T11:20:20.491Z,7.43
2022-12-27T11:22:48.796Z,7.52
2022-12-27T11:25:16.181Z,7.61
2022-12-27T11:27:52.598Z,7.68
2022-12-27T11:30:26.775Z,7.83
2022-12-27T11:32:53.663Z,7.98
2022-12-27T11:35:22.609Z,8.08
2022-12-27T11:37:50.599Z,8.11
2022-12-27T11:40:34.413Z,8.07
2022-12-27T11:43:08.102Z,8.10
2022-12-27T11:45:40.328Z,8.10
2022-12-27T11:48:30.886Z,8.05
2022-12-27T11:51:23.869Z,8.05
2022-12-27T11:54:02.021Z,8.05
2022-12-27T11:56:52.705Z,8.04
2022-12-27T11:59:38.844Z,8.10
2022-12-27T12:02:32.152Z,8.12
2022-12-27T12:05:23.028Z,8.14
2022-12-27T12:08:23.323Z,8.12
2022-12-27T12:11:06.978Z,8.12
2022-12-27T12:13:57.969Z,8.07
2022-12-27T12:16:51.878Z,8.03
2022-12-27T12:19:34.162Z,8.03
2022-12-27T12:22:29.912Z,8.00
2022-12-27T12:25:24.712Z,8.00
2022-12-27T12:28:02.174Z,7.97
2022-12-27T12:30:56.150Z,7.94
2022-12-27T12:33:48.886Z,7.94
2022-12-27T12:36:37.015Z,7.97
2022-12-27T12:39:36.685Z,7.97
2022-12-27T12:42:29.327Z,8.02
2022-12-27T12:45:17.647Z,8.01
2022-12-27T12:47:58.965Z,8.03
2022-12-27T12:50:53.207Z,8.05
2022-12-27T12:53:28.944Z,8.07
2022-12-27T12:56:13.953Z,8.11
2022-12-27T12:58:43.420Z,8.16
2022-12-27T13:01:31.490Z,8.16
2022-12-27T13:04:10.730Z,8.20
2022-12-27T13:06:55.022Z,8.23
2022-12-27T13:09:42.721Z,8.29
2022-12-27T13:12:18.351Z,8.28
2022-12-27T13:14:47.425Z,8.30
2022-12-27T13:17:25.380Z,8.28
2022-12-27T13:20:18.076Z,8.27
2022-12-27T13:23:10.403Z,8.30
2022-12-27T13:25:45.739Z,8.30
2022-12-27T13:28:36.666Z,8.26
2022-12-27T13:31:09.285Z,8.29
2022-12-27T13:33:59.181Z,8.26
2022-12-27T13:36:54.402Z,8.25
2022-12-27T13:39:35.473Z,8.28
2022-12-27T13:42:24.259Z,8.27
2022-12-27T13:45:20.555Z,8.25
2022-12-27T13:48:08.944Z,8.25
2022-12-27T13:50:53.844Z,8.31
2022-12-27T13:53:39.015Z,8.29
2022-12-27T13:56:53.511Z,8.30
2022-12-27T14:02:38.267Z,8.38
2022-12-27T14:05:46.211Z,8.43
2022-12-27T14:08:27.684Z,8.52
2022-12-27T14:11:00.838Z,8.56
2022-12-27T14:13:38.603Z,8.58
2022-12-27T14:16:26.757Z,8.64
2022-12-27T14:19:43.157Z,8.66
2022-12-27T14:22:25.428Z,8.72
2022-12-27T14:25:10.405Z,8.80
2022-12-27T14:28:14.214Z,8.78
2022-12-27T14:31:03.291Z,8.81
2022-12-27T14:33:48.717Z,8.85
2022-12-27T14:36:43.266Z,8.79
2022-12-27T14:39:28.657Z,8.79
2022-12-27T14:42:30.667Z,8.78
2022-12-27T14:45:15.947Z,8.81
2022-12-27T14:48:40.346Z,8.76
2022-12-27T14:52:00.351Z,8.78
2022-12-27T14:54:33.867Z,8.82
2022-12-27T14:57:15.833Z,8.82
2022-12-27T15:00:12.036Z,8.78
2022-12-27T15:02:56.617Z,8.76
2022-12-27T15:05:46.641Z,8.76
2022-12-27T15:08:31.681Z,8.66
2022-12-27T15:11:25.673Z,8.61
2022-12-27T15:13:52.214Z,8.59
2022-12-27T15:16:30.697Z,8.52
2022-12-27T15:19:41.603Z,8.45
2022-12-27T15:22:52.400Z,8.40
2022-12-27T15:25:18.819Z,8.40
2022-12-27T15:28:00.560Z,8.34
2022-12-27T15:30:55.145Z,8.30
2022-12-27T15:33:26.180Z,8.33
2022-12-27T15:35:58.438Z,8.32
2022-12-27T15:38:41.203Z,8.26
2022-12-27T15:41:07.782Z,8.27
2022-12-27T15:43:57.159Z,8.22
2022-12-27T15:46:38.892Z,8.21
2022-12-27T15:49:05.362Z,8.22
2022-12-27T15:51:45.194Z,8.17
2022-12-27T15:54:39.380Z,8.14
2022-12-27T15:57:33.504Z,8.11
2022-12-27T16:00:33.844Z,8.08
2022-12-27T16:03:03.242Z,8.10
2022-12-27T16:05:49.363Z,8.07
2022-12-27T16:08:27.598Z,8.06
2022-12-27T16:10:55.754Z,8.06
2022-12-27T16:13:43.294Z,8.01
2022-12-27T16:16:33.439Z,8.02
2022-12-27T16:19:12.237Z,8.02
2022-12-27T16:21:45.082Z,7.99
2022-12-27T16:24:17.399Z,7.97
2022-12-27T16:26:51.696Z,7.94
2022-12-27T16:29:18.546Z,7.97
2022-12-27T16:31:50.323Z,7.94
2022-12-27T16:34:30.201Z,7.94
2022-12-27T16:37:00.916Z,7.94
2022-12-27T16:39:33.418Z,7.94
2022-12-27T16:42:06.064Z,7.93
2022-12-27T16:44:44.710Z,7.94
2022-12-27T16:47:34.968Z,7.91
2022-12-27T16:50:26.869Z,7.93
2022-12-27T16:53:14.533Z,7.93
2022-12-27T16:56:05.827Z,7.93
2022-12-27T16:58:39.297Z,7.91
2022-12-27T17:01:27.033Z,7.92
2022-12-27T17:03:55.105Z,7.92
2022-12-27T17:06:37.000Z,7.92
2022-12-27T17:09:09.422Z,7.89
2022-12-27T17:11:41.717Z,7.90
2022-12-27T17:14:27.921Z,7.86
2022-12-27T17:17:03.109Z,7.88
2022-12-27T17:19:36.233Z,7.85
2022-12-27T17:22:08.057Z,7.86
2022-12-27T17:24:34.625Z,7.87
2022-12-27T17:27:16.429Z,7.84
2022-12-27T17:30:17.672Z,7.84
2022-12-27T17:32:59.983Z,7.85
2022-12-27T17:35:59.730Z,7.85
2022-12-27T17:38:35.234Z,7.89
2022-12-27T17:41:05.575Z,7.89
2022-12-27T17:44:18.243Z,7.88
2022-12-27T17:47:21.515Z,7.88
2022-12-27T17:49:48.968Z,7.93
2022-12-27T17:52:36.526Z,7.94
2022-12-27T17:55:37.621Z,7.93
2022-12-27T17:58:08.036Z,7.96
2022-12-27T18:00:43.580Z,7.97
2022-12-27T18:03:13.123Z,7.99
2022-12-27T18:05:43.098Z,7.99
2022-12-27T18:08:26.033Z,7.98
2022-12-27T18:10:52.756Z,8.01
2022-12-27T18:13:22.695Z,8.01
2022-12-27T18:15:50.897Z,8.02
2022-12-27T18:18:38.344Z,7.98
2022-12-27T18:21:07.013Z,8.02
2022-12-27T18:23:42.314Z,8.02
2022-12-27T18:26:14.101Z,8.03
2022-12-27T18:28:42.340Z,8.04
2022-12-27T18:31:27.097Z,8.06
2022-12-27T18:34:00.068Z,8.07
2022-12-27T18:36:31.978Z,8.10
2022-12-27T18:39:13.277Z,8.13
2022-12-27T18:41:51.435Z,8.11
2022-12-27T18:44:27.113Z,8.15
2022-12-27T18:46:56.654Z,8.16
2022-12-27T18:49:30.647Z,8.17
2022-12-27T18:51:58.014Z,8.19
2022-12-27T18:54:27.716Z,8.20
2022-12-27T18:56:55.253Z,8.23
2022-12-27T18:59:28.760Z,8.23
2022-12-27T19:01:58.701Z,8.25
2022-12-27T19:04:33.663Z,8.25
2022-12-27T19:07:12.917Z,8.27
2022-12-27T19:09:48.377Z,8.25
2022-12-27T19:12:35.199Z,8.28
2022-12-27T19:15:02.749Z,8.32
2022-12-27T19:17:31.708Z,8.32
2022-12-27T19:20:02.001Z,8.33
2022-12-27T19:22:36.755Z,8.35
2022-12-27T19:25:18.667Z,8.37
2022-12-27T19:28:09.835Z,8.37
2022-12-27T19:30:43.929Z,8.41
2022-12-27T19:33:22.565Z,8.45
2022-12-27T19:35:49.077Z,8.48
2022-12-27T19:38:21.561Z,8.50
2022-12-27T19:40:50.173Z,8.51
2022-12-27T19:43:18.215Z,8.54
2022-12-27T19:45:44.999Z,8.54
2022-12-27T19:48:11.650Z,8.56
2022-12-27T19:50:46.641Z,8.54
2022-12-27T19:53:22.763Z,8.54
2022-12-27T19:55:49.248Z,8.58
2022-12-27T19:58:21.184Z,8.54
2022-12-27T20:00:47.898Z,8.57
2022-12-27T20:03:14.473Z,8.57
2022-12-27T20:06:13.329Z,8.58
2022-12-27T20:08:38.065Z,8.56
2022-12-27T20:11:07.425Z,8.57
2022-12-27T20:13:33.953Z,8.55
2022-12-27T20:16:00.609Z,8.55
2022-12-27T20:18:27.082Z,8.53
2022-12-27T20:20:53.677Z,8.51
2022-12-27T20:23:20.441Z,8.47
2022-12-27T20:25:48.733Z,8.45
2022-12-27T20:28:16.849Z,8.42
2022-12-27T20:30:44.529Z,8.42
2022-12-27T20:33:11.265Z,8.35
2022-12-27T20:35:37.611Z,8.32
2022-12-27T20:38:04.370Z,8.28
2022-12-27T20:40:31.270Z,8.25
2022-12-27T20:42:57.917Z,8.22
2022-12-27T20:45:24.624Z,8.18
2022-12-27T20:47:51.008Z,8.15
2022-12-27T20:50:17.691Z,8.10
2022-12-27T20:52:44.115Z,8.07
2022-12-27T20:55:12.314Z,8.04
2022-12-27T20:57:39.258Z,8.00
2022-12-27T21:00:07.822Z,7.97
2022-12-27T21:02:34.601Z,7.92
2022-12-27T21:05:01.299Z,7.89
2022-12-27T21:07:27.700Z,7.84
2022-12-27T21:09:54.134Z,7.82
2022-12-27T21:12:20.584Z,7.79
2022-12-27T21:14:47.332Z,7.78
2022-12-27T21:17:13.647Z,7.75
2022-12-27T21:19:39.949Z,7.74
2022-12-27T21:22:06.559Z,7.73
2022-12-27T21:24:33.255Z,7.69
2022-12-27T21:26:59.619Z,7.66
2022-12-27T21:29:25.946Z,7.64
2022-12-27T21:31:53.215Z,7.61
2022-12-27T21:34:20.503Z,7.59
2022-12-27T21:36:51.081Z,7.55
2022-12-27T21:39:17.560Z,7.55
2022-12-27T21:41:43.923Z,7.53
2022-12-27T21:44:10.345Z,7.51
2022-12-27T21:46:39.598Z,7.50
2022-12-27T21:49:12.301Z,7.48
2022-12-27T21:51:39.920Z,7.48
2022-12-27T21:54:06.984Z,7.49
2022-12-27T21:56:33.827Z,7.47
2022-12-27T21:59:01.709Z,7.46
2022-12-27T22:01:30.680Z,7.46
2022-12-27T22:04:16.915Z,7.45
2022-12-27T22:06:46.828Z,7.41
2022-12-27T22:09:14.055Z,7.41
2022-12-27T22:11:40.446Z,7.40
2022-12-27T22:14:06.931Z,7.39
2022-12-27T22:16:38.801Z,7.38
2022-12-27T22:19:07.482Z,7.38
2022-12-27T22:21:35.672Z,7.36
2022-12-27T22:24:02.953Z,7.35
2022-12-27T22:26:37.080Z,7.32
2022-12-27T22:29:04.834Z,7.32
2022-12-27T22:31:35.107Z,7.31
2022-12-27T22:34:03.347Z,7.28
2022-12-27T22:36:30.120Z,7.26
2022-12-27T22:38:58.180Z,7.25
2022-12-27T22:41:33.475Z,7.20
2022-12-27T22:44:05.162Z,7.20
2022-12-27T22:46:58.727Z,7.18
2022-12-27T22:49:18.406Z,7.15
2022-12-27T22:51:45.249Z,7.12
2022-12-27T22:54:11.556Z,7.10
2022-12-27T22:56:40.144Z,7.09
2022-12-27T22:59:07.905Z,7.06
2022-12-27T23:01:34.754Z,7.06
2022-12-27T23:04:03.990Z,7.07
2022-12-27T23:06:32.410Z,7.05
2022-12-27T23:08:58.884Z,7.06
2022-12-27T23:11:30.630Z,7.04
2022-12-27T23:14:02.452Z,7.05
2022-12-27T23:16:34.576Z,7.06
2022-12-27T23:19:00.940Z,7.04
2022-12-27T23:21:27.253Z,7.06
2022-12-27T23:23:53.598Z,7.07
2022-12-27T23:26:22.622Z,7.07
2022-12-27T23:28:50.488Z,7.06
2022-12-27T23:31:17.996Z,7.07
2022-12-27T23:33:45.018Z,7.08
2022-12-27T23:36:12.743Z,7.09
2022-12-27T23:38:41.711Z,7.10
2022-12-27T23:41:10.813Z,7.11
2022-12-27T23:43:52.295Z,7.10
2022-12-27T23:46:21.349Z,7.12
2022-12-27T23:48:47.799Z,7.12
2022-12-27T23:51:14.678Z,7.13
2022-12-27T23:53:41.247Z,7.14
2022-12-27T23:56:34.100Z,7.11
2022-12-27T23:59:02.213Z,7.17
